Time;durP1;ratioP1;P1;durP2;ratioP2;P2;SDS_P1;SDS_P2;PMS_P1;PMS_P2;Temp;Humidity;BMP_temperature;BMP_pressure;BME280_temperature;BME280_humidity;BME280_pressure;Samples;Min_cycle;Max_cycle;Signal;HPM_P1;HPM_P2
2022/10/28 00:02:12;;;;;;;;;;;14.90;99.90;;;;;;5053206;28;19968;-68
2022/10/28 00:04:40;;;;;;;;;;;14.90;99.90;;;;;;5033760;28;19974;-68
2022/10/28 00:07:08;;;;;;;;;;;14.80;99.90;;;;;;5022208;28;20062;-68
2022/10/28 00:09:35;;;;;;;;;;;14.80;99.90;;;;;;5032574;28;20470;-68
2022/10/28 00:12:03;;;;;;;;;;;14.70;99.90;;;;;;5031400;28;20015;-68
2022/10/28 00:14:31;;;;;;;;;;;14.70;99.90;;;;;;5032912;28;19967;-68
2022/10/28 00:16:59;;;;;;;;;;;14.70;99.90;;;;;;5033183;28;20009;-68
2022/10/28 00:19:28;;;;;;;;;;;14.70;99.90;;;;;;5032357;28;19979;-68
2022/10/28 00:21:56;;;;;;;;;;;14.60;99.90;;;;;;5021208;28;19973;-68
2022/10/28 00:24:24;;;;;;;;;;;14.60;99.90;;;;;;5020573;28;19971;-68
2022/10/28 00:26:51;;;;;;;;;;;14.60;99.90;;;;;;5035720;28;19970;-68
2022/10/28 00:29:19;;;;;;;;;;;14.60;99.90;;;;;;5036406;28;19964;-68
2022/10/28 00:31:47;;;;;;;;;;;14.60;99.90;;;;;;5021677;28;19965;-66
2022/10/28 00:34:16;;;;;;;;;;;14.60;99.90;;;;;;5033810;28;19972;-68
2022/10/28 00:36:46;;;;;;;;;;;14.70;99.90;;;;;;5032689;28;19979;-68
2022/10/28 00:39:14;;;;;;;;;;;14.80;99.90;;;;;;5018883;28;19975;-68
2022/10/28 00:41:43;;;;;;;;;;;14.70;99.90;;;;;;5028759;28;19975;-68
2022/10/28 00:44:29;;;;;;;;;;;14.50;99.90;;;;;;5027438;28;19975;-68
2022/10/28 00:46:57;;;;;;;;;;;14.70;99.90;;;;;;4983823;23;1739267;-63
2022/10/28 00:49:27;;;;;;;;;;;14.70;99.90;;;;;;5029027;28;19971;-61
2022/10/28 00:51:58;;;;;;;;;;;14.70;99.90;;;;;;5036371;28;19962;-63
2022/10/28 00:54:26;;;;;;;;;;;14.70;99.90;;;;;;5053305;28;19974;-62
2022/10/28 00:56:56;;;;;;;;;;;14.80;99.90;;;;;;5064886;28;19982;-63
2022/10/28 00:59:26;;;;;;;;;;;14.80;99.90;;;;;;5071504;28;19967;-64
2022/10/28 01:01:54;;;;;;;;;;;14.90;99.90;;;;;;5069787;28;19966;-63
2022/10/28 01:04:22;;;;;;;;;;;14.80;99.90;;;;;;5062474;28;19975;-63
2022/10/28 01:06:50;;;;;;;;;;;14.90;99.90;;;;;;5070060;28;19968;-64
2022/10/28 01:09:19;;;;;;;;;;;14.90;99.90;;;;;;5079584;28;19970;-63
2022/10/28 01:11:54;;;;;;;;;;;14.90;99.90;;;;;;5071724;28;20444;-63
2022/10/28 01:14:26;;;;;;;;;;;15.00;99.90;;;;;;5071888;28;20010;-63
2022/10/28 01:17:01;;;;;;;;;;;15.00;99.90;;;;;;5071126;28;19974;-64
2022/10/28 01:19:44;;;;;;;;;;;15.00;99.90;;;;;;5071854;28;19967;-64
2022/10/28 01:22:15;;;;;;;;;;;15.00;99.90;;;;;;5072090;28;19977;-63
2022/10/28 01:24:54;;;;;;;;;;;15.00;99.90;;;;;;5071887;28;20057;-64
2022/10/28 01:27:36;;;;;;;;;;;15.00;99.90;;;;;;5071175;28;19967;-64
2022/10/28 01:30:09;;;;;;;;;;;15.00;99.90;;;;;;5071749;28;20005;-63
2022/10/28 01:32:51;;;;;;;;;;;15.00;99.90;;;;;;5071887;28;20061;-63
2022/10/28 01:35:22;;;;;;;;;;;15.00;99.90;;;;;;5071803;28;20057;-63
2022/10/28 01:37:55;;;;;;;;;;;15.20;99.90;;;;;;5071529;28;19970;-64
2022/10/28 01:40:27;;;;;;;;;;;15.20;99.90;;;;;;5071379;28;19967;-63
2022/10/28 01:42:56;;;;;;;;;;;15.20;99.90;;;;;;5071952;28;20053;-63
2022/10/28 01:45:26;;;;;;;;;;;15.30;99.90;;;;;;5071506;28;20412;-63
2022/10/28 01:47:57;;;;;;;;;;;15.30;99.90;;;;;;5071790;28;19966;-62
2022/10/28 01:50:26;;;;;;;;;;;15.30;99.90;;;;;;5071392;28;19966;-62
2022/10/28 01:52:56;;;;;;;;;;;15.40;99.90;;;;;;5071433;28;19972;-62
2022/10/28 01:55:26;;;;;;;;;;;15.40;99.90;;;;;;5071007;28;20030;-63
2022/10/28 01:57:55;;;;;;;;;;;15.30;99.90;;;;;;5071430;28;19969;-63
2022/10/28 02:00:23;;;;;;;;;;;15.40;99.90;;;;;;5071254;28;19967;-63
2022/10/28 02:02:51;;;;;;;;;;;15.50;99.90;;;;;;5071447;28;20439;-62
2022/10/28 02:05:39;;;;;;;;;;;15.40;99.90;;;;;;5071355;28;20025;-63
2022/10/28 02:08:14;;;;;;;;;;;15.40;99.90;;;;;;5071552;28;19966;-63
2022/10/28 02:10:46;;;;;;;;;;;15.50;99.90;;;;;;5069733;28;19971;-63
2022/10/28 02:13:15;;;;;;;;;;;15.50;99.90;;;;;;5070599;28;20058;-63
2022/10/28 02:15:47;;;;;;;;;;;15.50;99.90;;;;;;5069239;28;19970;-64
2022/10/28 02:18:20;;;;;;;;;;;15.50;99.90;;;;;;5070967;28;19968;-63
2022/10/28 02:20:51;;;;;;;;;;;15.50;99.90;;;;;;5070521;28;19973;-64
2022/10/28 02:23:26;;;;;;;;;;;15.50;99.90;;;;;;5069524;28;20428;-64
2022/10/28 02:25:56;;;;;;;;;;;15.50;99.90;;;;;;5071908;28;20042;-64
2022/10/28 02:28:29;;;;;;;;;;;15.40;99.90;;;;;;5072494;28;19968;-63
2022/10/28 02:31:01;;;;;;;;;;;15.40;99.90;;;;;;5074149;28;19969;-63
2022/10/28 02:33:30;;;;;;;;;;;15.40;99.90;;;;;;5072800;28;19970;-63
2022/10/28 02:36:02;;;;;;;;;;;15.50;99.90;;;;;;5073782;28;20477;-62
2022/10/28 02:38:32;;;;;;;;;;;15.50;99.90;;;;;;5063672;28;20066;-62
2022/10/28 02:41:02;;;;;;;;;;;15.50;99.90;;;;;;5073672;28;19973;-63
2022/10/28 02:43:33;;;;;;;;;;;15.50;99.90;;;;;;5071802;28;20355;-62
2022/10/28 02:46:02;;;;;;;;;;;15.50;99.90;;;;;;5067126;28;19977;-62
2022/10/28 02:48:31;;;;;;;;;;;15.60;99.90;;;;;;5072678;28;19966;-63
2022/10/28 02:51:03;;;;;;;;;;;15.60;99.90;;;;;;5072781;28;19966;-63
2022/10/28 02:53:32;;;;;;;;;;;15.60;99.90;;;;;;5071791;28;20699;-62
2022/10/28 02:56:02;;;;;;;;;;;15.60;99.90;;;;;;5072757;28;19979;-64
2022/10/28 02:58:37;;;;;;;;;;;15.60;99.90;;;;;;5065010;28;20440;-63
2022/10/28 03:01:05;;;;;;;;;;;15.60;99.90;;;;;;5070606;28;19967;-63
2022/10/28 03:03:33;;;;;;;;;;;15.60;99.90;;;;;;5072604;28;19964;-62
2022/10/28 03:06:02;;;;;;;;;;;15.50;99.90;;;;;;5072042;28;19977;-63
2022/10/28 03:08:30;;;;;;;;;;;15.50;99.90;;;;;;5074367;28;20451;-63
2022/10/28 03:10:57;;;;;;;;;;;15.40;99.90;;;;;;5076308;28;20474;-63
2022/10/28 03:13:25;;;;;;;;;;;15.50;99.90;;;;;;5072437;28;20451;-64
2022/10/28 03:15:53;;;;;;;;;;;15.40;99.90;;;;;;5075499;28;20348;-64
2022/10/28 03:18:20;;;;;;;;;;;15.40;99.90;;;;;;5073866;28;20444;-63
2022/10/28 03:20:48;;;;;;;;;;;15.40;99.90;;;;;;5076981;28;20352;-64
2022/10/28 03:23:17;;;;;;;;;;;15.40;99.90;;;;;;5072563;28;19973;-63
2022/10/28 03:25:45;;;;;;;;;;;15.40;99.90;;;;;;5073667;28;19968;-64
2022/10/28 03:28:13;;;;;;;;;;;15.40;99.90;;;;;;5073267;28;20344;-63
2022/10/28 03:30:40;;;;;;;;;;;15.40;99.90;;;;;;5072324;28;19968;-64
2022/10/28 03:33:08;;;;;;;;;;;15.30;99.90;;;;;;5065319;28;20414;-64
2022/10/28 03:35:36;;;;;;;;;;;15.20;99.90;;;;;;5077000;28;19962;-64
2022/10/28 03:38:03;;;;;;;;;;;15.20;99.90;;;;;;5073361;28;19974;-64
2022/10/28 03:40:33;;;;;;;;;;;15.20;99.90;;;;;;5073810;28;19978;-64
2022/10/28 03:43:00;;;;;;;;;;;15.20;99.90;;;;;;5073420;28;20413;-64
2022/10/28 03:45:28;;;;;;;;;;;15.10;99.90;;;;;;5072070;28;19973;-63
2022/10/28 03:48:01;;;;;;;;;;;15.10;99.90;;;;;;5061802;28;19968;-63
2022/10/28 03:50:28;;;;;;;;;;;15.10;99.90;;;;;;5070489;28;19963;-63
2022/10/28 03:52:56;;;;;;;;;;;15.10;99.90;;;;;;5072132;28;19969;-64
2022/10/28 03:55:24;;;;;;;;;;;15.10;99.90;;;;;;5070699;28;19964;-63
2022/10/28 03:57:53;;;;;;;;;;;15.00;99.90;;;;;;5070382;28;19963;-63
2022/10/28 04:00:22;;;;;;;;;;;15.20;99.90;;;;;;5072824;28;19970;-63
2022/10/28 04:02:50;;;;;;;;;;;15.30;99.90;;;;;;5071440;28;19970;-63
2022/10/28 04:05:19;;;;;;;;;;;15.40;99.90;;;;;;5076059;28;19970;-63
2022/10/28 04:07:47;;;;;;;;;;;15.40;99.90;;;;;;5072594;28;19967;-63
2022/10/28 04:10:14;;;;;;;;;;;15.50;99.90;;;;;;5072573;28;20433;-63
2022/10/28 04:12:42;;;;;;;;;;;15.50;99.90;;;;;;5072935;28;20344;-62
2022/10/28 04:15:11;;;;;;;;;;;15.60;99.90;;;;;;5070973;28;19968;-63
2022/10/28 04:17:39;;;;;;;;;;;15.60;99.90;;;;;;5061157;28;19967;-63
2022/10/28 04:20:07;;;;;;;;;;;15.70;99.90;;;;;;5065561;28;19973;-63
2022/10/28 04:22:35;;;;;;;;;;;15.70;99.90;;;;;;5065556;28;20559;-63
2022/10/28 04:25:02;;;;;;;;;;;15.70;99.90;;;;;;5072214;28;19968;-64
2022/10/28 04:27:30;;;;;;;;;;;15.80;99.90;;;;;;5071687;28;19974;-63
2022/10/28 04:29:58;;;;;;;;;;;15.80;99.90;;;;;;5065744;28;20050;-63
2022/10/28 04:32:27;;;;;;;;;;;15.70;99.90;;;;;;5071049;28;19974;-63
2022/10/28 04:34:55;;;;;;;;;;;15.70;99.90;;;;;;5069982;28;19970;-63
2022/10/28 04:37:22;;;;;;;;;;;15.70;99.90;;;;;;5071668;28;19977;-64
2022/10/28 04:39:50;;;;;;;;;;;15.70;99.90;;;;;;5072254;28;19964;-61
2022/10/28 04:42:18;;;;;;;;;;;15.70;99.90;;;;;;5071602;28;19968;-63
2022/10/28 04:44:45;;;;;;;;;;;15.60;99.90;;;;;;5071848;28;19964;-63
2022/10/28 04:47:13;;;;;;;;;;;15.70;99.90;;;;;;5071255;28;20339;-63
2022/10/28 04:49:42;;;;;;;;;;;15.70;99.90;;;;;;5073834;28;19967;-63
2022/10/28 04:52:10;;;;;;;;;;;15.70;99.90;;;;;;5066607;28;19970;-64
2022/10/28 04:54:42;;;;;;;;;;;15.70;99.90;;;;;;5062256;28;19971;-63
2022/10/28 04:57:10;;;;;;;;;;;15.70;99.90;;;;;;5071727;28;20448;-63
2022/10/28 04:59:37;;;;;;;;;;;15.70;99.90;;;;;;5066285;28;19985;-63
2022/10/28 05:02:05;;;;;;;;;;;15.60;99.90;;;;;;5071340;28;19986;-63
2022/10/28 05:04:33;;;;;;;;;;;15.60;99.90;;;;;;5075056;28;19975;-63
2022/10/28 05:07:02;;;;;;;;;;;15.60;99.90;;;;;;5071546;28;19973;-63
2022/10/28 05:09:29;;;;;;;;;;;15.50;99.90;;;;;;5072110;28;19975;-63
2022/10/28 05:11:57;;;;;;;;;;;15.40;99.90;;;;;;5071877;28;20354;-63
2022/10/28 05:14:25;;;;;;;;;;;15.40;99.90;;;;;;5071312;28;19968;-63
2022/10/28 05:16:53;;;;;;;;;;;15.40;99.90;;;;;;5070637;28;20056;-63
2022/10/28 05:19:20;;;;;;;;;;;15.30;99.90;;;;;;5064317;28;20392;-62
2022/10/28 05:21:48;;;;;;;;;;;15.30;99.90;;;;;;5070946;28;20439;-63
2022/10/28 05:24:17;;;;;;;;;;;15.20;99.90;;;;;;5067074;28;19963;-63
2022/10/28 05:26:45;;;;;;;;;;;15.20;99.90;;;;;;5070075;28;19970;-63
2022/10/28 05:29:12;;;;;;;;;;;15.20;99.90;;;;;;5062421;28;19968;-63
2022/10/28 05:31:40;;;;;;;;;;;15.20;99.90;;;;;;5060202;28;19963;-65
2022/10/28 05:34:08;;;;;;;;;;;15.20;99.90;;;;;;5070440;28;20482;-63
2022/10/28 05:36:35;;;;;;;;;;;15.10;99.90;;;;;;5071687;28;20372;-65
2022/10/28 05:39:03;;;;;;;;;;;15.10;99.90;;;;;;5071584;28;19971;-65
2022/10/28 05:41:32;;;;;;;;;;;15.10;99.90;;;;;;5068192;28;19996;-65
2022/10/28 05:44:05;;;;;;;;;;;15.00;99.90;;;;;;5070714;28;19964;-66
2022/10/28 05:46:33;;;;;;;;;;;15.00;99.90;;;;;;5070701;28;20340;-64
2022/10/28 05:49:00;;;;;;;;;;;15.00;99.90;;;;;;5071070;28;20361;-64
2022/10/28 05:51:28;;;;;;;;;;;15.10;99.90;;;;;;5070653;28;19964;-64
2022/10/28 05:53:56;;;;;;;;;;;15.00;99.90;;;;;;5067179;28;19971;-64
2022/10/28 05:56:24;;;;;;;;;;;15.00;99.90;;;;;;5070387;28;19972;-65
2022/10/28 05:58:53;;;;;;;;;;;15.00;99.90;;;;;;5071075;28;19964;-64
2022/10/28 06:01:20;;;;;;;;;;;15.00;99.90;;;;;;5070840;28;19963;-64
2022/10/28 06:03:48;;;;;;;;;;;15.00;99.90;;;;;;5074665;28;20053;-65
2022/10/28 06:06:16;;;;;;;;;;;15.00;99.90;;;;;;5074398;28;19968;-65
2022/10/28 06:08:43;;;;;;;;;;;15.00;99.90;;;;;;5074811;28;20006;-65
2022/10/28 06:11:11;;;;;;;;;;;15.00;99.90;;;;;;5072209;28;19996;-65
2022/10/28 06:13:39;;;;;;;;;;;15.00;99.90;;;;;;5066675;28;19971;-65
2022/10/28 06:16:08;;;;;;;;;;;15.00;99.90;;;;;;5067489;28;19964;-65
2022/10/28 06:18:36;;;;;;;;;;;15.00;99.90;;;;;;5065259;28;20335;-65
2022/10/28 06:21:04;;;;;;;;;;;15.00;99.90;;;;;;5066064;28;19966;-64
2022/10/28 06:23:32;;;;;;;;;;;15.00;99.90;;;;;;5073422;28;19990;-64
2022/10/28 06:26:05;;;;;;;;;;;15.00;99.90;;;;;;5071884;28;19976;-64
2022/10/28 06:28:33;;;;;;;;;;;15.10;99.90;;;;;;5071190;28;19964;-64
2022/10/28 06:31:03;;;;;;;;;;;15.10;99.90;;;;;;5071272;28;19968;-64
2022/10/28 06:33:32;;;;;;;;;;;15.20;99.90;;;;;;5072116;28;19963;-64
2022/10/28 06:36:02;;;;;;;;;;;15.20;99.90;;;;;;5072886;28;19971;-64
2022/10/28 06:38:30;;;;;;;;;;;15.30;99.90;;;;;;5071522;28;19964;-63
2022/10/28 06:40:59;;;;;;;;;;;15.30;99.90;;;;;;5072751;28;19973;-64
2022/10/28 06:43:28;;;;;;;;;;;15.30;99.90;;;;;;5072532;28;19962;-65
2022/10/28 06:45:56;;;;;;;;;;;15.40;99.90;;;;;;5067900;28;19982;-65
2022/10/28 06:48:24;;;;;;;;;;;15.40;99.90;;;;;;5106687;23;19969;-63
2022/10/28 06:50:56;;;;;;;;;;;15.40;99.90;;;;;;5090824;28;19970;-63
2022/10/28 06:53:24;;;;;;;;;;;15.40;99.90;;;;;;5092884;28;19991;-64
2022/10/28 06:55:52;;;;;;;;;;;15.50;99.90;;;;;;5090911;28;20057;-63
2022/10/28 06:58:20;;;;;;;;;;;15.50;99.90;;;;;;5074104;28;20002;-63
2022/10/28 07:00:48;;;;;;;;;;;15.50;99.90;;;;;;5071005;28;20440;-64
2022/10/28 07:03:16;;;;;;;;;;;15.50;99.90;;;;;;5072049;28;19962;-64
2022/10/28 07:05:44;;;;;;;;;;;15.60;99.90;;;;;;5071473;28;19963;-63
2022/10/28 07:08:13;;;;;;;;;;;15.60;99.90;;;;;;5072320;28;19971;-65
2022/10/28 07:10:41;;;;;;;;;;;15.60;99.90;;;;;;5072333;28;20057;-64
2022/10/28 07:13:08;;;;;;;;;;;15.70;99.90;;;;;;5071141;28;20519;-65
2022/10/28 07:15:36;;;;;;;;;;;15.70;99.90;;;;;;5071232;28;20105;-65
2022/10/28 07:18:04;;;;;;;;;;;15.80;99.90;;;;;;5070628;28;19970;-64
2022/10/28 07:20:32;;;;;;;;;;;15.80;99.90;;;;;;5071148;28;19964;-63
2022/10/28 07:23:00;;;;;;;;;;;15.90;99.90;;;;;;5071357;28;19966;-63
2022/10/28 07:25:30;;;;;;;;;;;15.90;99.90;;;;;;5071488;28;19995;-63
2022/10/28 07:27:58;;;;;;;;;;;16.00;99.90;;;;;;5070050;28;20065;-63
2022/10/28 07:30:26;;;;;;;;;;;16.00;99.90;;;;;;5070838;28;20316;-63
2022/10/28 07:32:54;;;;;;;;;;;16.10;99.90;;;;;;5071255;28;19974;-64
2022/10/28 07:35:22;;;;;;;;;;;16.20;99.90;;;;;;5072059;28;20009;-64
2022/10/28 07:37:50;;;;;;;;;;;16.20;99.90;;;;;;5071082;28;19966;-64
2022/10/28 07:40:18;;;;;;;;;;;16.30;99.90;;;;;;5071186;28;19973;-64
2022/10/28 07:42:47;;;;;;;;;;;16.40;99.90;;;;;;5070205;28;20010;-64
2022/10/28 07:45:15;;;;;;;;;;;16.40;99.90;;;;;;5067964;28;20457;-64
2022/10/28 07:47:43;;;;;;;;;;;16.50;99.90;;;;;;5070185;28;19963;-64
2022/10/28 07:50:11;;;;;;;;;;;16.50;99.90;;;;;;5073466;28;20447;-63
2022/10/28 07:52:38;;;;;;;;;;;16.60;99.90;;;;;;5074200;28;19963;-64
2022/10/28 07:55:07;;;;;;;;;;;16.80;99.90;;;;;;5072500;28;19966;-64
2022/10/28 07:57:35;;;;;;;;;;;16.80;99.90;;;;;;5072136;28;19973;-63
2022/10/28 08:00:05;;;;;;;;;;;16.90;99.90;;;;;;5072672;28;19967;-63
2022/10/28 08:02:33;;;;;;;;;;;16.90;99.90;;;;;;5073088;28;19966;-63
2022/10/28 08:05:01;;;;;;;;;;;17.00;99.90;;;;;;5068958;28;19971;-63
2022/10/28 08:07:30;;;;;;;;;;;17.10;99.90;;;;;;5076358;28;20338;-64
2022/10/28 08:10:03;;;;;;;;;;;17.10;99.90;;;;;;5067024;28;19988;-63
2022/10/28 08:12:30;;;;;;;;;;;17.20;99.90;;;;;;5072950;28;19967;-64
2022/10/28 08:14:58;;;;;;;;;;;17.40;99.90;;;;;;5077150;28;19970;-66
2022/10/28 08:17:27;;;;;;;;;;;17.50;99.90;;;;;;5074043;28;19973;-66
2022/10/28 08:19:55;;;;;;;;;;;17.50;99.90;;;;;;5072105;28;19969;-66
2022/10/28 08:22:23;;;;;;;;;;;17.50;99.90;;;;;;5087050;28;19969;-65
2022/10/28 08:24:51;;;;;;;;;;;17.40;99.90;;;;;;5077094;28;19970;-66
2022/10/28 08:27:18;;;;;;;;;;;17.40;99.90;;;;;;5069314;28;19981;-65
2022/10/28 08:29:46;;;;;;;;;;;17.40;99.90;;;;;;5068008;28;19982;-65
2022/10/28 08:32:14;;;;;;;;;;;17.40;99.90;;;;;;5068823;28;19974;-66
2022/10/28 08:34:43;;;;;;;;;;;17.40;99.90;;;;;;5069657;28;19970;-65
2022/10/28 08:37:10;;;;;;;;;;;17.40;99.90;;;;;;5074691;28;19968;-65
2022/10/28 08:39:38;;;;;;;;;;;17.40;99.90;;;;;;5070222;28;20439;-65
2022/10/28 08:42:17;;;;;;;;;;;17.40;99.90;;;;;;5069086;28;19973;-65
2022/10/28 08:44:52;;;;;;;;;;;17.30;99.90;;;;;;5071941;28;19973;-65
2022/10/28 08:47:28;;;;;;;;;;;17.40;99.90;;;;;;5069783;28;20016;-66
2022/10/28 08:49:59;;;;;;;;;;;17.40;99.90;;;;;;5069063;28;19968;-65
2022/10/28 08:52:29;;;;;;;;;;;17.40;99.90;;;;;;5060359;28;19962;-65
2022/10/28 08:55:01;;;;;;;;;;;17.50;99.90;;;;;;5071327;28;19969;-65
2022/10/28 08:57:34;;;;;;;;;;;17.50;99.90;;;;;;5073144;28;19962;-65
2022/10/28 09:00:02;;;;;;;;;;;17.50;99.90;;;;;;5071149;28;19975;-66
2022/10/28 09:02:32;;;;;;;;;;;17.60;99.90;;;;;;5070018;28;19966;-66
2022/10/28 09:05:05;;;;;;;;;;;17.70;99.90;;;;;;5072264;28;19977;-65
2022/10/28 09:07:35;;;;;;;;;;;17.80;99.90;;;;;;5066311;28;20012;-65
2022/10/28 09:10:04;;;;;;;;;;;17.90;99.90;;;;;;5070457;28;19963;-65
2022/10/28 09:12:38;;;;;;;;;;;18.00;99.90;;;;;;5071328;28;19966;-65
2022/10/28 09:15:12;;;;;;;;;;;18.40;99.90;;;;;;5066504;28;20358;-65
2022/10/28 09:17:43;;;;;;;;;;;18.70;99.90;;;;;;5067348;28;19990;-65
2022/10/28 09:20:17;;;;;;;;;;;19.00;99.90;;;;;;5063338;28;19966;-66
2022/10/28 09:22:49;;;;;;;;;;;19.30;99.90;;;;;;5069946;28;19962;-65
2022/10/28 09:25:21;;;;;;;;;;;19.60;99.90;;;;;;5068438;28;19970;-63
2022/10/28 09:27:54;;;;;;;;;;;19.60;99.90;;;;;;5069279;28;19967;-63
2022/10/28 09:30:28;;;;;;;;;;;19.90;99.90;;;;;;5069136;28;19969;-63
2022/10/28 09:33:04;;;;;;;;;;;20.00;99.90;;;;;;5073966;28;19963;-64
2022/10/28 09:35:36;;;;;;;;;;;20.10;99.90;;;;;;5078327;28;19977;-63
2022/10/28 09:38:07;;;;;;;;;;;19.90;99.90;;;;;;5074063;28;19990;-63
2022/10/28 09:40:36;;;;;;;;;;;19.70;99.90;;;;;;5072932;28;20082;-63
2022/10/28 09:43:06;;;;;;;;;;;19.40;99.90;;;;;;5073192;28;19962;-63
2022/10/28 09:45:37;;;;;;;;;;;19.30;99.90;;;;;;5074205;28;20046;-63
2022/10/28 09:48:08;;;;;;;;;;;19.30;99.90;;;;;;5073577;28;20005;-63
2022/10/28 09:50:37;;;;;;;;;;;19.40;99.90;;;;;;5073543;28;19962;-64
2022/10/28 09:53:11;;;;;;;;;;;19.60;99.90;;;;;;5074420;28;20004;-63
2022/10/28 09:55:38;;;;;;;;;;;19.60;99.90;;;;;;5072793;28;20070;-64
2022/10/28 09:58:06;;;;;;;;;;;19.60;99.90;;;;;;5073086;28;20413;-64
2022/10/28 10:00:34;;;;;;;;;;;19.80;99.90;;;;;;5073155;28;20405;-64
2022/10/28 10:03:01;;;;;;;;;;;19.70;99.90;;;;;;5073699;28;19966;-63
2022/10/28 10:05:30;;;;;;;;;;;19.60;99.90;;;;;;5073358;28;19977;-63
2022/10/28 10:08:02;;;;;;;;;;;19.60;99.90;;;;;;5070961;28;19976;-64
2022/10/28 10:10:32;;;;;;;;;;;19.60;99.90;;;;;;5073166;28;19996;-64
2022/10/28 10:13:01;;;;;;;;;;;19.70;99.90;;;;;;5073805;28;19970;-63
2022/10/28 10:15:31;;;;;;;;;;;20.10;99.90;;;;;;5073929;28;19970;-64
2022/10/28 10:18:00;;;;;;;;;;;20.50;99.90;;;;;;5072134;28;19966;-63
2022/10/28 10:20:27;;;;;;;;;;;20.90;99.90;;;;;;5073571;28;20057;-64
2022/10/28 10:22:55;;;;;;;;;;;21.20;99.90;;;;;;5071687;28;20062;-64
2022/10/28 10:25:28;;;;;;;;;;;21.60;99.90;;;;;;5074102;28;20343;-64
2022/10/28 10:27:59;;;;;;;;;;;22.10;99.90;;;;;;5074708;28;20071;-64
2022/10/28 10:30:29;;;;;;;;;;;22.20;99.90;;;;;;5071051;28;19968;-64
2022/10/28 10:32:57;;;;;;;;;;;22.30;99.90;;;;;;5074880;28;19968;-64
2022/10/28 10:35:26;;;;;;;;;;;22.30;99.90;;;;;;5074740;28;20014;-64
2022/10/28 10:37:54;;;;;;;;;;;22.00;99.90;;;;;;5074496;28;20013;-64
2022/10/28 10:40:24;;;;;;;;;;;22.20;99.90;;;;;;5074197;28;20444;-64
2022/10/28 10:42:53;;;;;;;;;;;22.20;99.90;;;;;;5074646;28;20498;-64
2022/10/28 10:45:40;;;;;;;;;;;22.40;99.90;;;;;;5074677;28;20016;-63
2022/10/28 10:48:12;;;;;;;;;;;22.20;99.90;;;;;;5073936;28;20018;-64
2022/10/28 10:50:40;;;;;;;;;;;22.10;99.90;;;;;;5074490;28;20011;-64
2022/10/28 10:53:16;;;;;;;;;;;22.40;99.90;;;;;;5074552;28;20013;-63
2022/10/28 10:55:49;;;;;;;;;;;22.90;99.90;;;;;;5074735;28;20126;-64
2022/10/28 10:58:19;;;;;;;;;;;23.20;99.90;;;;;;5068596;28;20057;-64
2022/10/28 11:00:47;;;;;;;;;;;23.70;99.90;;;;;;5072362;28;19998;-64
2022/10/28 11:03:18;;;;;;;;;;;23.70;99.90;;;;;;5074122;28;19966;-64
2022/10/28 11:05:50;;;;;;;;;;;23.70;99.90;;;;;;5061363;28;20059;-64
2022/10/28 11:08:39;;;;;;;;;;;23.90;99.90;;;;;;5054285;28;19972;-64
2022/10/28 11:11:08;;;;;;;;;;;24.00;99.90;;;;;;5056275;28;19968;-64
2022/10/28 11:13:38;;;;;;;;;;;24.40;99.90;;;;;;5074154;28;20066;-64
2022/10/28 11:16:19;;;;;;;;;;;25.00;99.90;;;;;;5073923;28;19976;-64
2022/10/28 11:18:48;;;;;;;;;;;24.70;99.90;;;;;;5074079;28;20062;-64
2022/10/28 11:21:42;;;;;;;;;;;25.00;99.90;;;;;;5073965;28;19972;-64
2022/10/28 11:24:16;;;;;;;;;;;24.80;99.90;;;;;;5066204;28;20054;-64
2022/10/28 11:26:48;;;;;;;;;;;24.80;99.90;;;;;;5073811;28;20008;-64
2022/10/28 11:29:18;;;;;;;;;;;24.90;99.90;;;;;;5073942;28;19984;-64
2022/10/28 11:31:51;;;;;;;;;;;24.90;99.90;;;;;;5073375;28;20054;-66
2022/10/28 11:34:27;;;;;;;;;;;24.80;99.90;;;;;;5073779;28;19972;-64
2022/10/28 11:37:04;;;;;;;;;;;24.90;99.90;;;;;;5073330;28;20017;-64
2022/10/28 11:39:33;;;;;;;;;;;25.10;99.90;;;;;;5073273;28;20003;-64
2022/10/28 11:42:07;;;;;;;;;;;25.10;99.90;;;;;;5073520;28;20029;-64
2022/10/28 11:44:43;;;;;;;;;;;25.00;99.90;;;;;;5073635;28;19968;-63
2022/10/28 11:47:18;;;;;;;;;;;24.60;99.90;;;;;;5073013;28;20397;-64
2022/10/28 11:50:00;;;;;;;;;;;24.40;99.90;;;;;;5073452;28;20102;-64
2022/10/28 11:52:34;;;;;;;;;;;23.90;99.90;;;;;;5073578;28;19994;-64
2022/10/28 11:55:07;;;;;;;;;;;23.70;99.90;;;;;;5073191;28;20441;-64
2022/10/28 11:57:40;;;;;;;;;;;23.60;99.90;;;;;;5067156;28;20017;-64
2022/10/28 12:00:25;;;;;;;;;;;23.40;99.90;;;;;;5072554;28;19967;-64
2022/10/28 12:02:58;;;;;;;;;;;23.30;99.90;;;;;;5066958;28;20017;-64
2022/10/28 12:05:30;;;;;;;;;;;23.20;99.90;;;;;;5073042;28;19971;-64
2022/10/28 12:08:04;;;;;;;;;;;22.90;99.90;;;;;;5072915;28;19975;-63
2022/10/28 12:10:36;;;;;;;;;;;22.70;99.90;;;;;;5072774;28;20463;-64
2022/10/28 12:13:09;;;;;;;;;;;22.80;99.90;;;;;;5072407;28;19974;-63
2022/10/28 12:15:43;;;;;;;;;;;23.00;99.90;;;;;;5072996;28;19971;-63
2022/10/28 12:18:17;;;;;;;;;;;23.50;99.90;;;;;;5073107;28;20657;-64
2022/10/28 12:20:47;;;;;;;;;;;24.00;99.90;;;;;;5072528;28;20097;-64
2022/10/28 12:23:17;;;;;;;;;;;24.40;99.90;;;;;;5072717;28;19978;-63
2022/10/28 12:25:48;;;;;;;;;;;24.60;99.90;;;;;;5072625;28;20392;-64
2022/10/28 12:28:18;;;;;;;;;;;24.50;99.90;;;;;;5072409;28;19963;-64
2022/10/28 12:30:48;;;;;;;;;;;24.20;99.90;;;;;;5072223;28;20459;-64
2022/10/28 12:33:17;;;;;;;;;;;24.10;99.90;;;;;;5072205;28;20496;-64
2022/10/28 12:35:48;;;;;;;;;;;24.00;99.90;;;;;;5072372;28;20532;-63
2022/10/28 12:38:19;;;;;;;;;;;23.80;99.90;;;;;;5072644;28;20011;-64
2022/10/28 12:40:50;;;;;;;;;;;23.70;99.90;;;;;;5070438;28;19999;-64
2022/10/28 12:43:23;;;;;;;;;;;23.30;99.90;;;;;;5072160;28;20003;-64
2022/10/28 12:45:53;;;;;;;;;;;23.20;99.90;;;;;;5072291;28;20025;-64
2022/10/28 12:48:26;;;;;;;;;;;23.30;99.90;;;;;;5104686;22;20078;-66
2022/10/28 12:50:56;;;;;;;;;;;23.20;99.90;;;;;;5091457;28;19974;-66
2022/10/28 12:53:28;;;;;;;;;;;23.60;99.90;;;;;;5091804;28;20430;-66
2022/10/28 12:55:57;;;;;;;;;;;23.80;99.90;;;;;;5077141;28;19968;-66
2022/10/28 12:58:28;;;;;;;;;;;23.90;99.90;;;;;;5071786;28;19994;-65
2022/10/28 13:00:59;;;;;;;;;;;24.00;99.90;;;;;;5071780;28;20413;-66
2022/10/28 13:03:27;;;;;;;;;;;23.90;99.90;;;;;;5090387;28;19967;-67
2022/10/28 13:06:00;;;;;;;;;;;23.80;99.90;;;;;;5092386;28;20059;-66
2022/10/28 13:08:46;;;;;;;;;;;23.70;99.90;;;;;;5092570;28;20420;-66
2022/10/28 13:11:34;;;;;;;;;;;23.60;99.90;;;;;;5092260;28;20351;-67
2022/10/28 13:14:07;;;;;;;;;;;23.50;99.90;;;;;;5071705;28;19968;-67
2022/10/28 13:16:45;;;;;;;;;;;23.40;99.90;;;;;;5071730;28;20018;-64
2022/10/28 13:19:34;;;;;;;;;;;23.30;99.90;;;;;;5071847;28;19972;-65
2022/10/28 13:22:17;;;;;;;;;;;23.40;99.90;;;;;;5064712;28;20375;-64
2022/10/28 13:24:50;;;;;;;;;;;23.60;99.90;;;;;;5051814;28;20054;-65
2022/10/28 13:27:19;;;;;;;;;;;23.50;99.90;;;;;;5051861;28;19983;-64
2022/10/28 13:29:49;;;;;;;;;;;23.60;99.90;;;;;;5051859;28;20067;-64
2022/10/28 13:32:33;;;;;;;;;;;23.40;99.90;;;;;;5080272;28;19999;-65
2022/10/28 13:35:13;;;;;;;;;;;23.30;99.90;;;;;;5073608;28;19967;-66
2022/10/28 13:37:41;;;;;;;;;;;23.10;99.90;;;;;;5071838;28;19967;-66
2022/10/28 13:40:20;;;;;;;;;;;23.00;99.90;;;;;;5071767;28;20195;-66
2022/10/28 13:42:48;;;;;;;;;;;22.90;99.90;;;;;;5069940;28;20345;-66
2022/10/28 13:45:34;;;;;;;;;;;22.90;99.90;;;;;;5072006;28;20390;-66
2022/10/28 13:48:17;;;;;;;;;;;22.80;99.90;;;;;;5081389;28;20062;-66
2022/10/28 13:50:46;;;;;;;;;;;22.80;99.90;;;;;;5090812;28;20394;-66
2022/10/28 13:53:42;;;;;;;;;;;22.70;99.90;;;;;;5091595;28;20013;-66
2022/10/28 13:56:28;;;;;;;;;;;22.60;99.90;;;;;;5091899;28;20066;-66
2022/10/28 13:58:57;;;;;;;;;;;22.60;99.90;;;;;;5091237;28;20071;-66
2022/10/28 14:01:52;;;;;;;;;;;22.60;99.90;;;;;;5089560;28;20394;-66
2022/10/28 14:04:41;;;;;;;;;;;22.80;99.90;;;;;;5036036;28;20343;-66
2022/10/28 14:07:21;;;;;;;;;;;22.90;99.90;;;;;;5071164;28;20011;-65
2022/10/28 14:09:53;;;;;;;;;;;22.90;99.90;;;;;;5070907;28;20555;-66
2022/10/28 14:12:23;;;;;;;;;;;23.00;99.90;;;;;;5071404;28;20400;-66
2022/10/28 14:14:53;;;;;;;;;;;23.00;99.90;;;;;;5075675;28;20083;-66
2022/10/28 14:17:23;;;;;;;;;;;22.80;99.90;;;;;;5091390;28;19975;-66
2022/10/28 14:19:51;;;;;;;;;;;22.70;99.90;;;;;;5091348;28;20073;-66
2022/10/28 14:22:29;;;;;;;;;;;22.70;99.90;;;;;;5091710;28;20055;-66
2022/10/28 14:24:57;;;;;;;;;;;22.60;99.90;;;;;;5095334;28;19980;-66
2022/10/28 14:27:29;;;;;;;;;;;22.60;99.90;;;;;;5095104;28;19986;-67
2022/10/28 14:30:14;;;;;;;;;;;22.60;99.90;;;;;;5092839;28;20006;-66
2022/10/28 14:32:43;;;;;;;;;;;22.40;99.90;;;;;;5083296;28;19988;-66
2022/10/28 14:35:23;;;;;;;;;;;22.30;99.90;;;;;;5074732;28;20058;-66
2022/10/28 14:38:05;;;;;;;;;;;22.20;99.90;;;;;;5074594;28;20429;-66